Time;durP1;ratioP1;P1;durP2;ratioP2;P2;SDS_P1;SDS_P2;PMS_P1;PMS_P2;Temp;Humidity;BMP_temperature;BMP_pressure;BME280_temperature;BME280_humidity;BME280_pressure;Samples;Min_cycle;Max_cycle;Signal;HPM_P1;HPM_P2
2024/02/10 00:02:06;;;;;;;0.10;0.10;;;;;;;;;;5024830;28;20509;-72
2024/02/10 00:04:34;;;;;;;0.10;0.10;;;;;;;;;;5009739;28;20230;-73
2024/02/10 00:07:00;;;;;;;0.10;0.10;;;;;;;;;;5025701;28;20415;-73
2024/02/10 00:09:27;;;;;;;0.10;0.10;;;;;;;;;;5009169;28;20270;-73
2024/02/10 00:11:53;;;;;;;0.10;0.10;;;;;;;;;;5023845;28;20275;-73
2024/02/10 00:14:21;;;;;;;0.10;0.10;;;;;;;;;;5010863;28;20407;-73
2024/02/10 00:16:47;;;;;;;0.10;0.10;;;;;;;;;;5022535;28;20241;-73
2024/02/10 00:19:13;;;;;;;0.10;0.10;;;;;;;;;;5012396;28;20212;-73
2024/02/10 00:21:44;;;;;;;0.10;0.10;;;;;;;;;;5020267;28;20278;-72
2024/02/10 00:24:11;;;;;;;0.10;0.10;;;;;;;;;;5011920;28;20211;-72
2024/02/10 00:26:38;;;;;;;0.10;0.10;;;;;;;;;;5019825;28;20240;-72
2024/02/10 00:29:04;;;;;;;0.10;0.10;;;;;;;;;;5014490;28;20198;-73
2024/02/10 00:31:31;;;;;;;0.10;0.10;;;;;;;;;;5017860;28;20244;-73
2024/02/10 00:33:58;;;;;;;0.10;0.10;;;;;;;;;;5016387;28;20647;-74
2024/02/10 00:36:24;;;;;;;0.10;0.10;;;;;;;;;;5016090;28;20249;-73
2024/02/10 00:38:52;;;;;;;0.10;0.10;;;;;;;;;;5018060;28;20282;-74
2024/02/10 00:41:19;;;;;;;0.10;0.10;;;;;;;;;;5014424;28;20265;-73
2024/02/10 00:43:46;;;;;;;0.10;0.10;;;;;;;;;;5019308;28;20274;-73
2024/02/10 00:46:13;;;;;;;0.10;0.10;;;;;;;;;;5012948;28;20243;-73
2024/02/10 00:48:39;;;;;;;0.10;0.10;;;;;;;;;;5019561;28;20202;-73
2024/02/10 00:51:06;;;;;;;0.10;0.10;;;;;;;;;;5010981;28;20243;-73
2024/02/10 00:53:39;;;;;;;0.10;0.10;;;;;;;;;;5022291;28;20209;-72
2024/02/10 00:56:08;;;;;;;0.10;0.10;;;;;;;;;;5011419;28;20361;-72
2024/02/10 00:58:40;;;;;;;0.10;0.10;;;;;;;;;;5021707;28;20211;-73
2024/02/10 01:01:09;;;;;;;0.10;0.10;;;;;;;;;;5011370;28;20250;-72
2024/02/10 01:03:37;;;;;;;0.10;0.10;;;;;;;;;;5021090;28;20214;-72
2024/02/10 01:06:05;;;;;;;0.10;0.10;;;;;;;;;;5010404;28;20455;-73
2024/02/10 01:08:31;;;;;;;0.10;0.10;;;;;;;;;;5021765;28;20238;-73
2024/02/10 01:10:58;;;;;;;0.10;0.10;;;;;;;;;;5008464;28;20321;-73
2024/02/10 01:13:26;;;;;;;0.10;0.10;;;;;;;;;;5024454;28;20215;-73
2024/02/10 01:15:54;;;;;;;0.10;0.10;;;;;;;;;;5007250;28;20251;-72
2024/02/10 01:18:21;;;;;;;0.10;0.10;;;;;;;;;;5024869;28;20213;-72
2024/02/10 01:20:47;;;;;;;0.10;0.10;;;;;;;;;;5005591;28;20247;-74
2024/02/10 01:23:14;;;;;;;0.10;0.10;;;;;;;;;;5026612;28;20207;-72
2024/02/10 01:25:41;;;;;;;0.10;0.10;;;;;;;;;;5003677;28;20243;-72
2024/02/10 01:28:07;;;;;;;0.10;0.10;;;;;;;;;;5028260;28;20208;-72
2024/02/10 01:30:35;;;;;;;0.10;0.10;;;;;;;;;;5002115;28;20306;-72
2024/02/10 01:33:01;;;;;;;0.10;0.10;;;;;;;;;;5030039;28;20405;-72
2024/02/10 01:35:28;;;;;;;0.10;0.10;;;;;;;;;;5000707;28;20474;-72
2024/02/10 01:37:55;;;;;;;0.10;0.10;;;;;;;;;;5031450;28;20272;-72
2024/02/10 01:40:22;;;;;;;0.10;0.10;;;;;;;;;;4998691;28;20251;-72
2024/02/10 01:42:49;;;;;;;0.10;0.10;;;;;;;;;;5033092;28;20234;-71
2024/02/10 01:45:17;;;;;;;0.10;0.10;;;;;;;;;;4996868;28;20261;-71
2024/02/10 01:47:46;;;;;;;0.10;0.10;;;;;;;;;;5034340;28;20208;-71
2024/02/10 01:50:13;;;;;;;0.10;0.10;;;;;;;;;;4996035;28;20235;-71
2024/02/10 01:52:39;;;;;;;0.10;0.10;;;;;;;;;;5035417;28;20243;-71
2024/02/10 01:55:06;;;;;;;0.10;0.10;;;;;;;;;;5004669;28;20237;-71
2024/02/10 01:57:33;;;;;;;0.10;0.10;;;;;;;;;;5026589;28;20306;-72
2024/02/10 02:00:04;;;;;;;0.10;0.10;;;;;;;;;;5004820;28;20280;-71
2024/02/10 02:02:31;;;;;;;0.10;0.10;;;;;;;;;;5026586;28;20265;-72
2024/02/10 02:04:59;;;;;;;0.10;0.10;;;;;;;;;;5004737;28;20228;-71
2024/02/10 02:07:30;;;;;;;0.10;0.10;;;;;;;;;;5026250;28;20294;-72
2024/02/10 02:09:57;;;;;;;0.10;0.10;;;;;;;;;;5004520;28;20279;-71
2024/02/10 02:12:23;;;;;;;0.10;0.10;;;;;;;;;;5026359;28;20241;-71
2024/02/10 02:14:49;;;;;;;0.13;0.13;;;;;;;;;;5004635;28;20206;-70
2024/02/10 02:17:16;;;;;;;0.10;0.10;;;;;;;;;;5026196;28;20246;-70
2024/02/10 02:19:42;;;;;;;0.10;0.10;;;;;;;;;;5004610;28;20398;-70
2024/02/10 02:22:10;;;;;;;0.10;0.10;;;;;;;;;;5026090;28;20281;-70
2024/02/10 02:24:38;;;;;;;0.10;0.10;;;;;;;;;;5004173;28;20211;-70
2024/02/10 02:27:05;;;;;;;0.10;0.10;;;;;;;;;;5024147;28;20611;-70
2024/02/10 02:29:32;;;;;;;0.10;0.10;;;;;;;;;;5005615;28;20241;-69
2024/02/10 02:32:00;;;;;;;0.10;0.10;;;;;;;;;;5022956;28;20285;-69
2024/02/10 02:34:26;;;;;;;0.10;0.10;;;;;;;;;;5006889;28;20526;-70
2024/02/10 02:36:53;;;;;;;0.10;0.10;;;;;;;;;;5021306;28;20339;-70
2024/02/10 02:39:19;;;;;;;0.10;0.10;;;;;;;;;;5008316;28;20209;-69
2024/02/10 02:41:47;;;;;;;0.10;0.10;;;;;;;;;;5019701;28;20249;-69
2024/02/10 02:44:14;;;;;;;0.10;0.10;;;;;;;;;;5010025;28;20212;-70
2024/02/10 02:46:41;;;;;;;0.10;0.10;;;;;;;;;;5018191;28;20243;-70
2024/02/10 02:49:08;;;;;;;0.10;0.10;;;;;;;;;;5011524;28;20243;-70
2024/02/10 02:51:35;;;;;;;0.10;0.10;;;;;;;;;;5016699;28;20478;-70
2024/02/10 02:54:01;;;;;;;0.10;0.10;;;;;;;;;;5012985;28;20288;-70
2024/02/10 02:56:27;;;;;;;0.10;0.10;;;;;;;;;;5014851;28;20245;-70
2024/02/10 02:58:55;;;;;;;0.10;0.10;;;;;;;;;;5014669;28;20242;-70
2024/02/10 03:01:22;;;;;;;0.10;0.10;;;;;;;;;;5013222;28;20458;-70
2024/02/10 03:03:50;;;;;;;0.10;0.10;;;;;;;;;;5016242;28;20210;-70
2024/02/10 03:06:18;;;;;;;0.10;0.10;;;;;;;;;;5011731;28;20251;-70
2024/02/10 03:08:45;;;;;;;0.10;0.10;;;;;;;;;;5016688;28;20493;-70
2024/02/10 03:11:17;;;;;;;0.10;0.10;;;;;;;;;;5010863;28;20247;-70
2024/02/10 03:13:44;;;;;;;0.10;0.10;;;;;;;;;;5021389;28;20275;-70
2024/02/10 03:16:12;;;;;;;0.10;0.10;;;;;;;;;;5014183;28;20305;-70
2024/02/10 03:18:42;;;;;;;0.10;0.10;;;;;;;;;;5022580;28;20215;-70
2024/02/10 03:21:10;;;;;;;0.10;0.10;;;;;;;;;;5013316;28;20243;-70
2024/02/10 03:23:36;;;;;;;0.10;0.10;;;;;;;;;;5022721;28;20212;-70
2024/02/10 03:26:03;;;;;;;0.10;0.10;;;;;;;;;;5011619;28;20246;-70
2024/02/10 03:28:29;;;;;;;0.10;0.10;;;;;;;;;;5024905;28;20561;-70
2024/02/10 03:30:56;;;;;;;0.10;0.10;;;;;;;;;;5009781;28;20251;-70
2024/02/10 03:33:23;;;;;;;0.10;0.10;;;;;;;;;;5026512;28;20275;-69
2024/02/10 03:35:53;;;;;;;0.10;0.10;;;;;;;;;;5008292;28;20256;-70
2024/02/10 03:38:21;;;;;;;0.10;0.10;;;;;;;;;;5027104;28;20397;-70
2024/02/10 03:40:47;;;;;;;0.10;0.10;;;;;;;;;;5007673;28;20278;-70
2024/02/10 03:43:14;;;;;;;0.10;0.10;;;;;;;;;;5028875;28;20206;-70
2024/02/10 03:45:40;;;;;;;0.10;0.10;;;;;;;;;;5005457;28;20247;-70
2024/02/10 03:48:07;;;;;;;0.10;0.10;;;;;;;;;;5030501;28;20515;-70
2024/02/10 03:50:35;;;;;;;0.10;0.10;;;;;;;;;;5003802;28;20300;-70
2024/02/10 03:53:01;;;;;;;0.10;0.10;;;;;;;;;;5032052;28;20497;-70
2024/02/10 03:55:29;;;;;;;0.10;0.10;;;;;;;;;;5002097;28;20439;-70
2024/02/10 03:57:56;;;;;;;0.10;0.10;;;;;;;;;;5033353;28;20252;-70
2024/02/10 04:00:25;;;;;;;0.10;0.10;;;;;;;;;;5000497;28;20207;-70
2024/02/10 04:02:52;;;;;;;0.10;0.10;;;;;;;;;;5034023;28;20206;-70
2024/02/10 04:05:18;;;;;;;0.10;0.10;;;;;;;;;;4999358;28;20208;-70
2024/02/10 04:07:49;;;;;;;0.10;0.10;;;;;;;;;;5035368;28;20247;-70
2024/02/10 04:10:16;;;;;;;0.10;0.10;;;;;;;;;;4998943;28;20235;-70
2024/02/10 04:12:42;;;;;;;0.10;0.10;;;;;;;;;;5036370;28;20213;-70
2024/02/10 04:15:12;;;;;;;0.10;0.10;;;;;;;;;;5006638;28;20237;-70
2024/02/10 04:17:38;;;;;;;0.10;0.10;;;;;;;;;;5057150;28;20269;-70
2024/02/10 04:20:07;;;;;;;0.10;0.10;;;;;;;;;;5026164;28;20205;-70
2024/02/10 04:22:33;;;;;;;0.10;0.10;;;;;;;;;;5027300;28;20411;-70
2024/02/10 04:25:01;;;;;;;0.10;0.10;;;;;;;;;;5006429;28;20229;-70
2024/02/10 04:27:27;;;;;;;0.10;0.10;;;;;;;;;;5027908;28;20259;-70
2024/02/10 04:29:54;;;;;;;0.10;0.10;;;;;;;;;;5006611;28;20216;-70
2024/02/10 04:32:21;;;;;;;0.10;0.10;;;;;;;;;;5028128;28;20294;-70
2024/02/10 04:34:47;;;;;;;0.10;0.10;;;;;;;;;;5006294;28;20213;-70
2024/02/10 04:37:19;;;;;;;0.10;0.10;;;;;;;;;;5028001;28;20540;-70
2024/02/10 04:39:46;;;;;;;0.10;0.10;;;;;;;;;;5006565;28;20243;-70
2024/02/10 04:42:13;;;;;;;0.10;0.10;;;;;;;;;;5027888;28;20439;-70
2024/02/10 04:44:40;;;;;;;0.10;0.10;;;;;;;;;;5006356;28;20237;-70
2024/02/10 04:47:06;;;;;;;0.10;0.10;;;;;;;;;;5026915;28;20261;-70
2024/02/10 04:49:36;;;;;;;0.10;0.10;;;;;;;;;;5006632;28;20275;-70
2024/02/10 04:52:03;;;;;;;0.10;0.10;;;;;;;;;;5026145;28;20524;-70
2024/02/10 04:54:29;;;;;;;0.10;0.10;;;;;;;;;;5007107;28;20404;-70
2024/02/10 04:56:58;;;;;;;0.10;0.10;;;;;;;;;;5024120;28;20295;-70
2024/02/10 04:59:26;;;;;;;0.10;0.10;;;;;;;;;;5008415;28;20217;-70
2024/02/10 05:01:54;;;;;;;0.10;0.10;;;;;;;;;;5022284;28;20276;-70
2024/02/10 05:04:21;;;;;;;0.10;0.10;;;;;;;;;;5010196;28;20208;-70
2024/02/10 05:06:47;;;;;;;0.10;0.10;;;;;;;;;;5021319;28;20249;-70
2024/02/10 05:09:14;;;;;;;0.10;0.10;;;;;;;;;;5011081;28;20258;-70
2024/02/10 05:11:41;;;;;;;0.10;0.10;;;;;;;;;;5019980;28;20283;-70
2024/02/10 05:14:08;;;;;;;0.10;0.10;;;;;;;;;;5012686;28;20242;-71
2024/02/10 05:16:36;;;;;;;0.10;0.10;;;;;;;;;;5018328;28;20323;-72
2024/02/10 05:19:02;;;;;;;0.10;0.10;;;;;;;;;;5014084;28;20207;-70
2024/02/10 05:21:29;;;;;;;0.10;0.10;;;;;;;;;;5016535;28;20302;-70
2024/02/10 05:23:55;;;;;;;0.10;0.10;;;;;;;;;;5015923;28;20396;-69
2024/02/10 05:26:21;;;;;;;0.10;0.10;;;;;;;;;;5014640;28;20314;-70
2024/02/10 05:28:48;;;;;;;0.10;0.10;;;;;;;;;;5017380;28;20207;-70
2024/02/10 05:31:15;;;;;;;0.10;0.10;;;;;;;;;;5012639;28;20242;-70
2024/02/10 05:33:43;;;;;;;0.10;0.10;;;;;;;;;;5019040;28;20278;-70
2024/02/10 05:36:10;;;;;;;0.10;0.10;;;;;;;;;;5011104;28;20238;-70
2024/02/10 05:38:38;;;;;;;0.10;0.10;;;;;;;;;;5020256;28;20251;-70
2024/02/10 05:41:04;;;;;;;0.10;0.10;;;;;;;;;;5009739;28;20440;-70
2024/02/10 05:43:32;;;;;;;0.10;0.10;;;;;;;;;;5021792;28;20391;-70
2024/02/10 05:46:01;;;;;;;0.10;0.10;;;;;;;;;;5008382;28;20243;-70
2024/02/10 05:48:29;;;;;;;0.10;0.10;;;;;;;;;;5022686;28;20215;-70
2024/02/10 05:50:58;;;;;;;0.10;0.10;;;;;;;;;;5007447;28;20270;-70
2024/02/10 05:53:24;;;;;;;0.10;0.10;;;;;;;;;;5023250;28;20265;-70
2024/02/10 05:55:52;;;;;;;0.10;0.10;;;;;;;;;;5006220;28;20305;-70
2024/02/10 05:58:23;;;;;;;0.10;0.10;;;;;;;;;;5024706;28;20204;-70
2024/02/10 06:00:49;;;;;;;0.10;0.10;;;;;;;;;;5004911;28;20248;-70
2024/02/10 06:03:16;;;;;;;0.10;0.10;;;;;;;;;;5026329;28;20399;-70
2024/02/10 06:05:42;;;;;;;0.10;0.10;;;;;;;;;;5003778;28;20536;-70
2024/02/10 06:08:12;;;;;;;0.10;0.10;;;;;;;;;;5026714;28;20261;-70
2024/02/10 06:10:38;;;;;;;0.10;0.10;;;;;;;;;;5002745;28;20505;-70
2024/02/10 06:13:04;;;;;;;0.10;0.10;;;;;;;;;;5028022;28;20227;-71
2024/02/10 06:15:32;;;;;;;0.10;0.10;;;;;;;;;;5001061;28;20511;-70
2024/02/10 06:18:02;;;;;;;0.10;0.10;;;;;;;;;;5029827;28;20454;-70
2024/02/10 06:20:29;;;;;;;0.10;0.10;;;;;;;;;;4999892;28;20267;-70
2024/02/10 06:22:57;;;;;;;0.10;0.10;;;;;;;;;;5030362;28;20209;-70
2024/02/10 06:25:25;;;;;;;0.10;0.10;;;;;;;;;;4998244;28;20255;-70
2024/02/10 06:27:52;;;;;;;0.10;0.10;;;;;;;;;;5031302;28;20295;-69
2024/02/10 06:30:20;;;;;;;0.10;0.10;;;;;;;;;;4997496;28;20273;-69
2024/02/10 06:32:46;;;;;;;0.10;0.10;;;;;;;;;;5032585;28;20209;-69
2024/02/10 06:35:13;;;;;;;0.10;0.10;;;;;;;;;;4995424;28;20255;-69
2024/02/10 06:37:42;;;;;;;0.10;0.10;;;;;;;;;;5034291;28;20273;-69
2024/02/10 06:40:09;;;;;;;0.10;0.10;;;;;;;;;;5000592;28;20209;-69
2024/02/10 06:42:37;;;;;;;0.10;0.10;;;;;;;;;;5035194;28;20245;-69
2024/02/10 06:45:10;;;;;;;0.10;0.10;;;;;;;;;;5004283;28;20249;-69
2024/02/10 06:47:36;;;;;;;0.10;0.10;;;;;;;;;;4992146;28;20267;-69
2024/02/10 06:50:04;;;;;;;0.10;0.10;;;;;;;;;;5004343;28;20429;-69
2024/02/10 06:52:32;;;;;;;0.10;0.10;;;;;;;;;;5025768;28;20255;-69
2024/02/10 06:54:59;;;;;;;0.10;0.10;;;;;;;;;;5003986;28;20206;-70
2024/02/10 06:57:27;;;;;;;0.10;0.10;;;;;;;;;;5025752;28;20239;-69
2024/02/10 06:59:56;;;;;;;0.10;0.10;;;;;;;;;;5004176;28;20256;-70
2024/02/10 07:02:24;;;;;;;0.10;0.10;;;;;;;;;;5025602;28;20439;-69
2024/02/10 07:04:52;;;;;;;0.10;0.10;;;;;;;;;;5003883;28;20232;-69
2024/02/10 07:07:19;;;;;;;0.10;0.10;;;;;;;;;;5025267;28;20251;-69
2024/02/10 07:09:45;;;;;;;0.10;0.10;;;;;;;;;;5003899;28;20196;-69
2024/02/10 07:12:12;;;;;;;0.10;0.10;;;;;;;;;;5025560;28;20248;-70
2024/02/10 07:14:38;;;;;;;0.10;0.10;;;;;;;;;;5003654;28;20271;-69
2024/02/10 07:17:06;;;;;;;0.10;0.10;;;;;;;;;;5024546;28;20267;-69
2024/02/10 07:19:35;;;;;;;0.10;0.10;;;;;;;;;;5004250;28;20246;-69
2024/02/10 07:22:01;;;;;;;0.10;0.10;;;;;;;;;;5023556;28;20454;-69
2024/02/10 07:24:28;;;;;;;0.10;0.10;;;;;;;;;;5005349;28;20236;-70
2024/02/10 07:26:56;;;;;;;0.10;0.10;;;;;;;;;;5021333;28;20303;-70
2024/02/10 07:29:23;;;;;;;0.10;0.10;;;;;;;;;;5007122;28;20408;-69
2024/02/10 07:31:50;;;;;;;0.10;0.10;;;;;;;;;;5020208;28;20265;-69
2024/02/10 07:34:18;;;;;;;0.10;0.10;;;;;;;;;;5008615;28;20399;-70
2024/02/10 07:36:45;;;;;;;0.10;0.10;;;;;;;;;;5018982;28;20590;-69
2024/02/10 07:39:14;;;;;;;0.10;0.10;;;;;;;;;;5009903;28;20399;-69
2024/02/10 07:41:40;;;;;;;0.10;0.10;;;;;;;;;;5017865;28;20557;-69
2024/02/10 07:44:07;;;;;;;0.10;0.10;;;;;;;;;;5011003;28;20214;-69
2024/02/10 07:46:34;;;;;;;0.10;0.10;;;;;;;;;;5015661;28;20276;-69
2024/02/10 07:49:03;;;;;;;0.10;0.10;;;;;;;;;;5012701;28;20208;-70
2024/02/10 07:51:30;;;;;;;0.10;0.10;;;;;;;;;;5014795;28;20243;-69
2024/02/10 07:53:58;;;;;;;0.10;0.10;;;;;;;;;;5013539;28;20240;-69
2024/02/10 07:56:28;;;;;;;0.10;0.10;;;;;;;;;;5013599;28;20737;-69
2024/02/10 07:58:57;;;;;;;0.10;0.10;;;;;;;;;;5017157;28;20210;-69
2024/02/10 08:01:25;;;;;;;0.10;0.10;;;;;;;;;;5016624;28;20244;-69
2024/02/10 08:03:54;;;;;;;0.10;0.10;;;;;;;;;;5018432;28;20267;-69
2024/02/10 08:06:21;;;;;;;0.10;0.10;;;;;;;;;;5015680;28;20243;-69
2024/02/10 08:08:49;;;;;;;0.10;0.10;;;;;;;;;;5019122;28;20268;-70
2024/02/10 08:11:16;;;;;;;0.10;0.10;;;;;;;;;;5014316;28;20238;-69
2024/02/10 08:13:42;;;;;;;0.10;0.10;;;;;;;;;;5020464;28;20234;-69
2024/02/10 08:16:09;;;;;;;0.10;0.10;;;;;;;;;;5012700;28;20247;-70
2024/02/10 08:18:37;;;;;;;0.10;0.10;;;;;;;;;;5022292;28;20212;-70
2024/02/10 08:21:06;;;;;;;0.10;0.10;;;;;;;;;;5011007;28;20240;-70
2024/02/10 08:23:34;;;;;;;0.10;0.10;;;;;;;;;;5023100;28;20579;-70
2024/02/10 08:26:02;;;;;;;0.10;0.10;;;;;;;;;;5010476;28;20611;-70
2024/02/10 08:28:29;;;;;;;0.10;0.10;;;;;;;;;;5024176;28;20425;-70
2024/02/10 08:30:57;;;;;;;0.10;0.10;;;;;;;;;;5009061;28;20247;-69
2024/02/10 08:33:23;;;;;;;0.10;0.10;;;;;;;;;;5025163;28;20210;-69
2024/02/10 08:35:50;;;;;;;0.10;0.10;;;;;;;;;;5007183;28;20242;-70
2024/02/10 08:38:17;;;;;;;0.10;0.10;;;;;;;;;;5026754;28;20212;-69
2024/02/10 08:40:44;;;;;;;0.10;0.10;;;;;;;;;;5005378;28;20307;-68
2024/02/10 08:43:11;;;;;;;0.10;0.10;;;;;;;;;;5028775;28;20527;-69
2024/02/10 08:45:38;;;;;;;0.10;0.10;;;;;;;;;;5003986;28;20242;-70
2024/02/10 08:48:08;;;;;;;0.10;0.10;;;;;;;;;;5029995;28;20229;-69
2024/02/10 08:50:34;;;;;;;0.10;0.10;;;;;;;;;;5003198;28;20288;-69
2024/02/10 08:53:01;;;;;;;0.10;0.10;;;;;;;;;;5030799;28;20397;-69
2024/02/10 08:55:28;;;;;;;0.10;0.10;;;;;;;;;;5001172;28;20447;-71
2024/02/10 08:57:55;;;;;;;0.10;0.10;;;;;;;;;;5032624;28;20427;-70
2024/02/10 09:00:23;;;;;;;0.17;0.17;;;;;;;;;;4999782;28;20276;-70
2024/02/10 09:02:50;;;;;;;0.10;0.10;;;;;;;;;;5033734;28;20217;-69
2024/02/10 09:05:17;;;;;;;0.10;0.10;;;;;;;;;;4997933;28;20267;-69
2024/02/10 09:07:43;;;;;;;0.10;0.10;;;;;;;;;;5034710;28;20279;-69
2024/02/10 09:10:10;;;;;;;0.10;0.10;;;;;;;;;;5000511;28;20224;-69
2024/02/10 09:12:36;;;;;;;0.10;0.10;;;;;;;;;;5036786;28;20249;-69
2024/02/10 09:15:03;;;;;;;0.10;0.10;;;;;;;;;;5005580;28;20249;-69
2024/02/10 09:17:31;;;;;;;0.10;0.10;;;;;;;;;;5027236;28;20244;-70
2024/02/10 09:19:58;;;;;;;0.10;0.10;;;;;;;;;;5005778;28;20557;-69
2024/02/10 09:22:24;;;;;;;0.10;0.10;;;;;;;;;;5027322;28;20289;-69
2024/02/10 09:24:53;;;;;;;0.10;0.10;;;;;;;;;;5005389;28;20207;-69
2024/02/10 09:27:20;;;;;;;0.10;0.10;;;;;;;;;;5026989;28;20255;-70
2024/02/10 09:29:46;;;;;;;0.10;0.10;;;;;;;;;;5005150;28;20200;-69
2024/02/10 09:32:14;;;;;;;0.10;0.10;;;;;;;;;;5027165;28;20277;-70
2024/02/10 09:34:42;;;;;;;0.10;0.10;;;;;;;;;;5005159;28;20206;-70
2024/02/10 09:37:08;;;;;;;0.10;0.10;;;;;;;;;;5026809;28;20259;-70
2024/02/10 09:39:37;;;;;;;0.10;0.10;;;;;;;;;;5005152;28;20230;-70
2024/02/10 09:42:05;;;;;;;0.10;0.10;;;;;;;;;;5025278;28;20463;-70
2024/02/10 09:44:32;;;;;;;0.10;0.10;;;;;;;;;;5005693;28;20225;-69
2024/02/10 09:47:00;;;;;;;0.10;0.10;;;;;;;;;;5023839;28;20503;-70
2024/02/10 09:49:28;;;;;;;0.10;0.10;;;;;;;;;;5007267;28;20209;-69
2024/02/10 09:51:56;;;;;;;0.00;0.00;;;;;;;;;;5022869;28;20469;-69
2024/02/10 09:54:22;;;;;;;0.10;0.10;;;;;;;;;;5008242;28;20273;-70
2024/02/10 09:56:49;;;;;;;0.10;0.10;;;;;;;;;;5021388;28;20259;-69
2024/02/10 09:59:22;;;;;;;0.00;0.00;;;;;;;;;;5010058;28;20208;-70
2024/02/10 10:01:49;;;;;;;0.10;0.10;;;;;;;;;;5021295;28;20248;-69
2024/02/10 10:04:16;;;;;;;0.10;0.10;;;;;;;;;;5009902;28;20206;-70
2024/02/10 10:06:44;;;;;;;0.10;0.10;;;;;;;;;;5019308;28;20257;-69
2024/02/10 10:09:12;;;;;;;0.10;0.10;;;;;;;;;;5010883;28;20253;-70
2024/02/10 10:11:39;;;;;;;0.10;0.10;;;;;;;;;;5018401;28;20244;-74
2024/02/10 10:14:08;;;;;;;0.10;0.10;;;;;;;;;;5012271;28;20204;-68
2024/02/10 10:16:33;;;;;;;0.10;0.10;;;;;;;;;;5017175;28;20291;-68
2024/02/10 10:19:00;;;;;;;0.00;0.00;;;;;;;;;;5013210;28;20209;-67
2024/02/10 10:21:26;;;;;;;0.10;0.10;;;;;;;;;;5015015;28;20261;-67
2024/02/10 10:23:54;;;;;;;0.03;0.03;;;;;;;;;;5015624;28;20249;-68
2024/02/10 10:26:23;;;;;;;0.08;0.08;;;;;;;;;;5013387;28;20249;-67
2024/02/10 10:28:50;;;;;;;0.00;0.00;;;;;;;;;;5016300;28;20238;-68
2024/02/10 10:31:17;;;;;;;0.00;0.00;;;;;;;;;;5012236;28;20263;-68
2024/02/10 10:33:45;;;;;;;0.05;0.05;;;;;;;;;;5017717;28;20518;-68
2024/02/10 10:36:12;;;;;;;0.00;0.00;;;;;;;;;;5010870;28;20244;-68
2024/02/10 10:38:38;;;;;;;0.08;0.08;;;;;;;;;;5018989;28;20269;-69
2024/02/10 10:41:05;;;;;;;0.00;0.00;;;;;;;;;;5009047;28;20304;-68
2024/02/10 10:43:34;;;;;;;0.00;0.00;;;;;;;;;;5020694;28;20214;-68
2024/02/10 10:46:00;;;;;;;0.00;0.00;;;;;;;;;;5007424;28;20251;-67
2024/02/10 10:48:27;;;;;;;0.00;0.00;;;;;;;;;;5022240;28;20234;-68
2024/02/10 10:50:56;;;;;;;0.00;0.00;;;;;;;;;;5006000;28;20427;-67
2024/02/10 10:53:27;;;;;;;0.00;0.00;;;;;;;;;;5022941;28;20248;-66
2024/02/10 10:55:55;;;;;;;0.00;0.00;;;;;;;;;;5006192;28;20248;-66
2024/02/10 10:58:25;;;;;;;0.00;0.00;;;;;;;;;;5023255;28;20460;-66
2024/02/10 11:00:53;;;;;;;0.00;0.00;;;;;;;;;;5005248;28;20274;-67
2024/02/10 11:03:22;;;;;;;0.00;0.00;;;;;;;;;;5023700;28;20210;-67
2024/02/10 11:05:50;;;;;;;0.00;0.00;;;;;;;;;;5004638;28;20460;-68
2024/02/10 11:08:22;;;;;;;0.00;0.00;;;;;;;;;;5024202;28;20262;-68
2024/02/10 11:10:57;;;;;;;0.00;0.00;;;;;;;;;;5004496;28;20241;-67
2024/02/10 11:13:26;;;;;;;0.00;0.00;;;;;;;;;;5022512;28;20336;-67
2024/02/10 11:16:04;;;;;;;0.00;0.00;;;;;;;;;;5005145;28;20236;-73
2024/02/10 11:18:33;;;;;;;0.00;0.00;;;;;;;;;;5020837;28;20205;-67
2024/02/10 11:21:06;;;;;;;0.00;0.00;;;;;;;;;;5006910;28;20430;-68
2024/02/10 11:23:33;;;;;;;0.00;0.00;;;;;;;;;;5020825;28;20396;-71
2024/02/10 11:26:00;;;;;;;0.00;0.00;;;;;;;;;;5007457;28;20299;-68
2024/02/10 11:28:26;;;;;;;0.00;0.00;;;;;;;;;;5021467;28;20264;-68
2024/02/10 11:30:53;;;;;;;0.00;0.00;;;;;;;;;;5005449;28;20267;-68
2024/02/10 11:33:22;;;;;;;0.00;0.00;;;;;;;;;;5025840;28;20217;-68
2024/02/10 11:35:50;;;;;;;0.00;0.00;;;;;;;;;;5008262;28;20584;-68
2024/02/10 11:38:17;;;;;;;0.00;0.00;;;;;;;;;;5027967;28;20506;-68
2024/02/10 11:40:43;;;;;;;0.00;0.00;;;;;;;;;;5006597;28;20247;-67
2024/02/10 11:43:14;;;;;;;0.00;0.00;;;;;;;;;;5029751;28;20206;-67
2024/02/10 11:45:40;;;;;;;0.00;0.00;;;;;;;;;;5005397;28;20244;-67
2024/02/10 11:48:08;;;;;;;0.00;0.00;;;;;;;;;;5030570;28;20257;-68
2024/02/10 11:50:42;;;;;;;0.00;0.00;;;;;;;;;;5003992;28;20330;-67
2024/02/10 11:53:11;;;;;;;0.00;0.00;;;;;;;;;;5030127;28;20236;-67
2024/02/10 11:55:41;;;;;;;0.00;0.00;;;;;;;;;;5004858;28;20568;-66
2024/02/10 11:58:08;;;;;;;0.00;0.00;;;;;;;;;;5029855;28;20202;-68
2024/02/10 12:00:34;;;;;;;0.00;0.00;;;;;;;;;;5002893;28;20295;-68
2024/02/10 12:03:00;;;;;;;0.00;0.00;;;;;;;;;;5032698;28;20241;-67
2024/02/10 12:05:29;;;;;;;0.00;0.00;;;;;;;;;;5002064;28;20451;-69
2024/02/10 12:07:56;;;;;;;0.00;0.00;;;;;;;;;;5032566;28;20304;-67
2024/02/10 12:10:23;;;;;;;0.00;0.00;;;;;;;;;;5000673;28;20422;-67
2024/02/10 12:12:54;;;;;;;0.00;0.00;;;;;;;;;;5034396;28;20245;-69
2024/02/10 12:15:20;;;;;;;0.10;0.10;;;;;;;;;;4999651;28;20206;-68
2024/02/10 12:17:47;;;;;;;0.00;0.00;;;;;;;;;;5034937;28;20213;-68
2024/02/10 12:20:16;;;;;;;0.00;0.00;;;;;;;;;;4997794;28;20238;-68
2024/02/10 12:22:43;;;;;;;0.00;0.00;;;;;;;;;;5036107;28;20297;-69
2024/02/10 12:25:11;;;;;;;0.00;0.00;;;;;;;;;;4999949;28;20371;-68
2024/02/10 12:27:37;;;;;;;0.00;0.00;;;;;;;;;;5037445;28;20285;-69
2024/02/10 12:30:05;;;;;;;0.00;0.00;;;;;;;;;;5006589;28;20234;-68
2024/02/10 12:32:32;;;;;;;0.10;0.10;;;;;;;;;;5028347;28;20249;-68
2024/02/10 12:35:12;;;;;;;0.10;0.10;;;;;;;;;;5006156;28;20206;-69
2024/02/10 12:37:38;;;;;;;0.00;0.00;;;;;;;;;;4995236;28;20397;-68
2024/02/10 12:40:10;;;;;;;0.00;0.00;;;;;;;;;;5006397;28;20202;-69
2024/02/10 12:42:42;;;;;;;0.10;0.10;;;;;;;;;;4995092;28;20206;-69
2024/02/10 12:45:10;;;;;;;0.00;0.00;;;;;;;;;;5005220;28;20202;-70
2024/02/10 12:47:37;;;;;;;0.00;0.00;;;;;;;;;;4994930;28;20430;-69
2024/02/10 12:50:07;;;;;;;0.00;0.00;;;;;;;;;;5006181;28;20457;-68
2024/02/10 12:52:33;;;;;;;0.00;0.00;;;;;;;;;;5031188;28;20308;-70
2024/02/10 12:55:00;;;;;;;0.00;0.00;;;;;;;;;;5025745;28;20449;-68
2024/02/10 12:57:27;;;;;;;0.00;0.00;;;;;;;;;;5047597;28;20294;-68
2024/02/10 12:59:55;;;;;;;0.00;0.00;;;;;;;;;;5025575;28;20197;-68
2024/02/10 13:02:21;;;;;;;0.00;0.00;;;;;;;;;;5047476;28;20239;-69
2024/02/10 13:04:48;;;;;;;0.00;0.00;;;;;;;;;;5025184;28;20277;-69
2024/02/10 13:07:15;;;;;;;0.00;0.00;;;;;;;;;;5047226;28;20240;-69
2024/02/10 13:09:42;;;;;;;0.00;0.00;;;;;;;;;;5025164;28;20229;-68
2024/02/10 13:12:08;;;;;;;0.00;0.00;;;;;;;;;;5046928;28;20512;-69
2024/02/10 13:14:34;;;;;;;0.00;0.00;;;;;;;;;;5025486;28;20286;-71
2024/02/10 13:17:02;;;;;;;0.08;0.08;;;;;;;;;;5044886;28;20263;-70
2024/02/10 13:19:29;;;;;;;0.00;0.00;;;;;;;;;;5026975;28;20273;-70
2024/02/10 13:21:55;;;;;;;0.00;0.00;;;;;;;;;;5043368;28;20247;-69
2024/02/10 13:24:24;;;;;;;0.05;0.05;;;;;;;;;;5028770;28;20272;-69
2024/02/10 13:26:50;;;;;;;0.00;0.00;;;;;;;;;;5041990;28;20303;-69
2024/02/10 13:29:20;;;;;;;0.10;0.10;;;;;;;;;;5029968;28;20263;-70
2024/02/10 13:31:47;;;;;;;0.00;0.00;;;;;;;;;;5041199;28;20526;-70
2024/02/10 13:34:14;;;;;;;0.00;0.00;;;;;;;;;;5030569;28;20441;-69
2024/02/10 14:00:48;;;;;;;0.05;0.05;;;;;;;;;;5025035;28;20243;-69
2024/02/10 14:03:14;;;;;;;0.00;0.00;;;;;;;;;;5045628;28;20218;-68
2024/02/10 14:08:41;;;;;;;0.00;0.00;;;;;;;;;;5040829;28;20233;-68
2024/02/10 14:11:19;;;;;;;0.10;0.10;;;;;;;;;;5029805;28;20304;-69
2024/02/10 14:13:49;;;;;;;0.00;0.00;;;;;;;;;;5037393;28;20235;-68
2024/02/10 14:16:21;;;;;;;0.00;0.00;;;;;;;;;;5031886;28;20239;-68
2024/02/10 14:18:48;;;;;;;0.10;0.10;;;;;;;;;;5036750;28;20216;-68
2024/02/10 14:21:26;;;;;;;0.10;0.10;;;;;;;;;;5031270;28;20243;-69
2024/02/10 14:23:53;;;;;;;0.10;0.10;;;;;;;;;;5035649;28;20232;-69
2024/02/10 14:26:36;;;;;;;0.10;0.10;;;;;;;;;;5032839;28;20269;-69
2024/02/10 14:29:05;;;;;;;0.00;0.00;;;;;;;;;;5032298;28;20233;-69
2024/02/10 14:31:33;;;;;;;0.00;0.00;;;;;;;;;;5035827;28;20302;-68
2024/02/10 14:34:00;;;;;;;0.10;0.10;;;;;;;;;;5033426;28;20238;-69
2024/02/10 14:36:48;;;;;;;0.10;0.10;;;;;;;;;;5034614;28;20239;-68
2024/02/10 14:39:16;;;;;;;0.10;0.10;;;;;;;;;;5029316;28;20225;-69
2024/02/10 14:41:44;;;;;;;0.10;0.10;;;;;;;;;;5038774;28;20242;-69
2024/02/10 14:44:10;;;;;;;0.10;0.10;;;;;;;;;;5030064;28;20214;-68
2024/02/10 14:46:38;;;;;;;0.10;0.10;;;;;;;;;;5037255;28;20309;-68
2024/02/10 14:49:05;;;;;;;0.08;0.08;;;;;;;;;;5031731;28;20299;-68
2024/02/10 14:51:32;;;;;;;0.10;0.10;;;;;;;;;;5035684;28;20566;-69
2024/02/10 14:53:59;;;;;;;0.10;0.10;;;;;;;;;;5033367;28;20279;-69
2024/02/10 14:56:30;;;;;;;0.03;0.03;;;;;;;;;;5034021;28;20248;-68
2024/02/10 14:58:57;;;;;;;0.10;0.10;;;;;;;;;;5033372;28;20205;-69
2024/02/10 15:01:24;;;;;;;0.03;0.03;;;;;;;;;;5033657;28;20264;-68
2024/02/10 15:03:51;;;;;;;0.05;0.05;;;;;;;;;;5035268;28;20395;-69
2024/02/10 15:06:19;;;;;;;0.10;0.10;;;;;;;;;;5031754;28;20245;-68
2024/02/10 15:08:49;;;;;;;0.03;0.03;;;;;;;;;;5039286;28;20241;-69
2024/02/10 15:11:15;;;;;;;0.10;0.10;;;;;;;;;;5035240;28;20299;-67
2024/02/10 15:13:41;;;;;;;0.10;0.10;;;;;;;;;;5041732;28;20518;-68